createdAt,value
2017-10-27T00:00:02.318Z,12.94
2017-10-27T00:02:29.838Z,12.83
2017-10-27T00:04:57.233Z,12.81
2017-10-27T00:07:24.687Z,12.82
2017-10-27T00:09:52.115Z,12.78
2017-10-27T00:12:19.544Z,12.87
2017-10-27T00:14:46.969Z,12.98
2017-10-27T00:17:14.425Z,13.03
2017-10-27T00:19:42.327Z,13.06
2017-10-27T00:22:09.743Z,13.10
2017-10-27T00:24:37.168Z,13.06
2017-10-27T00:27:04.721Z,13.05
2017-10-27T00:29:32.151Z,12.96
2017-10-27T00:32:00.482Z,12.77
2017-10-27T00:34:27.929Z,12.65
2017-10-27T00:36:55.359Z,12.58
2017-10-27T00:39:22.758Z,12.55
2017-10-27T00:41:50.239Z,12.56
2017-10-27T00:44:17.627Z,12.57
2017-10-27T00:46:45.064Z,12.60
2017-10-27T00:49:12.481Z,12.62
2017-10-27T00:51:39.912Z,12.77
2017-10-27T00:54:07.377Z,12.89
2017-10-27T00:56:34.820Z,13.02
2017-10-27T00:59:02.219Z,13.05
2017-10-27T01:01:29.677Z,13.13
2017-10-27T01:03:57.112Z,13.04
2017-10-27T01:06:24.535Z,13.24
2017-10-27T01:08:51.969Z,13.30
2017-10-27T01:11:19.430Z,13.38
2017-10-27T01:13:46.893Z,13.42
2017-10-27T01:16:14.335Z,13.38
2017-10-27T01:18:41.768Z,13.49
2017-10-27T01:21:09.182Z,13.38
2017-10-27T01:23:36.615Z,13.35
2017-10-27T01:26:04.025Z,13.41
2017-10-27T01:28:31.472Z,13.51
2017-10-27T01:30:58.880Z,13.60
2017-10-27T01:33:26.319Z,13.50
2017-10-27T01:35:53.750Z,13.49
2017-10-27T01:38:21.163Z,13.51
2017-10-27T01:40:48.602Z,13.53
2017-10-27T01:43:16.017Z,13.42
2017-10-27T01:45:43.444Z,13.53
2017-10-27T01:48:10.863Z,13.50
2017-10-27T01:50:38.282Z,13.47
2017-10-27T01:53:05.691Z,13.41
2017-10-27T01:55:33.131Z,12.98
2017-10-27T01:58:00.551Z,12.86
2017-10-27T02:00:28.015Z,12.89
2017-10-27T02:02:55.412Z,13.04
2017-10-27T02:05:22.857Z,13.25
2017-10-27T02:07:50.312Z,13.46
2017-10-27T02:10:17.797Z,13.43
2017-10-27T02:12:45.247Z,13.54
2017-10-27T02:15:12.788Z,13.43
2017-10-27T02:17:40.208Z,13.39
2017-10-27T02:20:07.609Z,13.32
2017-10-27T02:22:35.064Z,13.23
2017-10-27T02:25:02.495Z,13.16
2017-10-27T02:27:29.885Z,13.28
2017-10-27T02:29:57.317Z,13.43
2017-10-27T02:32:24.724Z,13.43
2017-10-27T02:34:52.243Z,13.52
2017-10-27T02:37:19.643Z,13.55
2017-10-27T02:39:47.048Z,13.64
2017-10-27T02:42:14.511Z,13.74
2017-10-27T02:44:41.896Z,13.85
2017-10-27T02:47:09.329Z,13.82
2017-10-27T02:49:36.781Z,13.77
2017-10-27T02:52:04.201Z,13.71
2017-10-27T02:54:31.595Z,13.64
2017-10-27T02:56:59.059Z,13.66
2017-10-27T02:59:26.461Z,13.73
2017-10-27T03:01:53.907Z,13.74
2017-10-27T03:04:21.343Z,13.77
2017-10-27T03:06:48.781Z,13.84
2017-10-27T03:09:16.292Z,13.86
2017-10-27T03:11:43.692Z,13.85
2017-10-27T03:14:11.146Z,13.91
2017-10-27T03:16:38.588Z,13.90
2017-10-27T03:19:06.028Z,13.95
2017-10-27T03:21:33.429Z,14.00
2017-10-27T03:24:00.880Z,14.10
2017-10-27T03:26:28.297Z,14.18
2017-10-27T03:28:55.877Z,14.26
2017-10-27T03:31:23.274Z,14.28
2017-10-27T03:33:50.691Z,14.26
2017-10-27T03:36:18.137Z,14.32
2017-10-27T03:38:45.530Z,14.34
2017-10-27T03:41:12.957Z,14.34
2017-10-27T03:43:40.362Z,14.25
2017-10-27T03:46:07.799Z,14.24
2017-10-27T03:48:35.217Z,14.26
2017-10-27T03:51:02.649Z,14.26
2017-10-27T03:53:30.057Z,14.24
2017-10-27T03:55:57.485Z,14.25
2017-10-27T03:58:24.876Z,14.30
2017-10-27T04:00:52.325Z,14.31
2017-10-27T04:03:19.729Z,14.38
2017-10-27T04:05:47.144Z,14.41
2017-10-27T04:08:14.581Z,14.38
2017-10-27T04:10:41.996Z,14.31
2017-10-27T04:13:09.411Z,14.24
2017-10-27T04:15:36.819Z,14.24
2017-10-27T04:18:04.235Z,14.18
2017-10-27T04:20:31.660Z,14.11
2017-10-27T04:22:59.145Z,14.05
2017-10-27T04:25:26.580Z,14.12
2017-10-27T04:27:54.006Z,14.19
2017-10-27T04:30:21.432Z,14.17
2017-10-27T04:32:48.850Z,14.23
2017-10-27T04:35:16.307Z,14.31
2017-10-27T04:37:43.692Z,14.26
2017-10-27T04:40:11.128Z,14.28
2017-10-27T04:42:38.566Z,14.30
2017-10-27T04:45:06.008Z,14.09
2017-10-27T04:47:33.438Z,14.05
2017-10-27T04:50:00.871Z,13.75
2017-10-27T04:52:28.291Z,13.62
2017-10-27T04:54:55.738Z,13.54
2017-10-27T04:57:23.167Z,13.53
2017-10-27T04:59:50.558Z,13.48
2017-10-27T05:02:18.012Z,13.45
2017-10-27T05:04:45.411Z,13.44
2017-10-27T05:07:12.904Z,13.44
2017-10-27T05:09:40.303Z,13.33
2017-10-27T05:12:07.757Z,13.54
2017-10-27T05:14:35.169Z,13.60
2017-10-27T05:17:08.252Z,13.74
2017-10-27T05:19:41.292Z,13.89
2017-10-27T05:22:14.260Z,13.90
2017-10-27T05:24:41.669Z,13.95
2017-10-27T05:27:09.100Z,13.95
2017-10-27T05:29:36.519Z,13.93
2017-10-27T05:32:03.918Z,13.76
2017-10-27T05:34:31.336Z,13.71
2017-10-27T05:36:58.763Z,13.60
2017-10-27T05:39:26.220Z,13.81
2017-10-27T05:41:53.609Z,13.86
2017-10-27T05:44:21.060Z,13.90
2017-10-27T05:46:48.480Z,13.85
2017-10-27T05:49:15.932Z,13.75
2017-10-27T05:51:43.336Z,13.73
2017-10-27T05:54:10.781Z,13.76
2017-10-27T05:56:38.208Z,13.67
2017-10-27T05:59:05.618Z,13.59
2017-10-27T06:01:33.101Z,13.69
2017-10-27T06:04:00.525Z,13.76
2017-10-27T06:06:27.976Z,13.82
2017-10-27T06:08:55.403Z,13.94
2017-10-27T06:11:22.859Z,13.87
2017-10-27T06:13:50.291Z,13.61
2017-10-27T06:16:17.824Z,13.68
2017-10-27T06:18:45.248Z,13.74
2017-10-27T06:21:12.698Z,13.75
2017-10-27T06:23:40.123Z,13.63
2017-10-27T06:26:07.624Z,13.69
2017-10-27T06:28:36.512Z,13.72
2017-10-27T06:31:04.000Z,13.72
2017-10-27T06:33:31.435Z,13.74
2017-10-27T06:35:58.914Z,13.79
2017-10-27T06:38:26.549Z,13.90
2017-10-27T06:40:53.960Z,13.93
2017-10-27T06:43:21.395Z,13.97
2017-10-27T06:45:48.825Z,13.94
2017-10-27T06:48:16.377Z,13.85
2017-10-27T06:50:43.901Z,13.91
2017-10-27T06:53:11.318Z,14.01
2017-10-27T06:55:38.741Z,14.02
2017-10-27T06:58:06.169Z,14.02
2017-10-27T07:00:33.575Z,13.80
2017-10-27T07:03:01.372Z,13.82
2017-10-27T07:05:28.835Z,13.81
2017-10-27T07:08:00.956Z,13.68
2017-10-27T07:10:30.681Z,13.78
2017-10-27T07:12:58.152Z,13.92
2017-10-27T07:15:25.571Z,14.00
2017-10-27T07:18:00.441Z,14.05
2017-10-27T07:23:15.925Z,14.06
2017-10-27T07:25:45.027Z,13.98
2017-10-27T07:28:12.669Z,13.88
2017-10-27T07:30:40.229Z,13.69
2017-10-27T07:33:24.044Z,13.74
2017-10-27T07:35:51.800Z,13.86
2017-10-27T07:38:19.302Z,13.95
2017-10-27T07:40:46.735Z,14.05
2017-10-27T07:43:14.963Z,13.99
2017-10-27T07:45:42.452Z,14.01
2017-10-27T07:48:09.903Z,14.01
2017-10-27T07:50:37.373Z,13.96
2017-10-27T07:53:04.936Z,13.95
2017-10-27T07:55:32.371Z,13.99
2017-10-27T07:57:59.820Z,14.04
2017-10-27T08:00:27.200Z,14.07
2017-10-27T08:02:54.661Z,14.10
2017-10-27T08:05:22.072Z,14.17
2017-10-27T08:07:49.563Z,14.30
2017-10-27T08:10:16.960Z,14.25
2017-10-27T08:12:44.406Z,14.23
2017-10-27T08:15:11.817Z,14.21
2017-10-27T08:17:39.208Z,14.17
2017-10-27T08:20:06.626Z,14.22
2017-10-27T08:22:34.018Z,14.33
2017-10-27T08:25:01.454Z,14.36
2017-10-27T08:27:28.855Z,14.44
2017-10-27T08:29:56.294Z,14.65
2017-10-27T08:32:23.826Z,14.61
2017-10-27T08:34:51.285Z,14.62
2017-10-27T08:37:18.764Z,14.51
2017-10-27T08:39:46.176Z,14.61
2017-10-27T08:42:26.236Z,14.78
2017-10-27T08:44:53.626Z,14.82
2017-10-27T08:47:21.047Z,14.79
2017-10-27T08:49:48.588Z,14.86
2017-10-27T08:52:16.048Z,14.79
2017-10-27T08:54:43.540Z,14.80
2017-10-27T08:57:11.213Z,14.82
2017-10-27T08:59:38.673Z,14.81
2017-10-27T09:02:06.094Z,14.77
2017-10-27T09:04:33.521Z,14.74
2017-10-27T09:07:00.931Z,14.70
2017-10-27T09:09:28.341Z,14.63
2017-10-27T09:11:55.795Z,14.76
2017-10-27T09:14:23.241Z,14.85
2017-10-27T09:16:50.646Z,14.89
2017-10-27T09:19:18.103Z,14.76
2017-10-27T09:21:45.519Z,14.82
2017-10-27T09:24:13.831Z,14.95
2017-10-27T09:26:41.229Z,14.79
2017-10-27T09:29:08.648Z,15.01
2017-10-27T09:31:36.117Z,15.18
2017-10-27T09:34:03.507Z,15.37
2017-10-27T09:36:30.932Z,15.33
2017-10-27T09:38:58.334Z,15.02
2017-10-27T09:41:25.748Z,14.89
2017-10-27T09:43:53.153Z,14.72
2017-10-27T09:46:20.663Z,14.90
2017-10-27T09:48:48.100Z,14.87
2017-10-27T09:51:15.577Z,14.82
2017-10-27T09:53:42.957Z,15.01
2017-10-27T09:56:10.421Z,15.12
2017-10-27T09:58:38.157Z,15.11
2017-10-27T10:01:05.556Z,15.31
2017-10-27T10:03:32.996Z,15.42
2017-10-27T10:06:00.400Z,15.23
2017-10-27T10:08:27.830Z,15.27
2017-10-27T10:10:55.219Z,15.07
2017-10-27T10:13:22.687Z,15.00
2017-10-27T10:15:50.093Z,14.89
2017-10-27T10:18:17.524Z,14.96
2017-10-27T10:20:45.703Z,14.88
2017-10-27T10:23:13.136Z,14.79
2017-10-27T10:25:40.563Z,14.75
2017-10-27T10:28:07.963Z,14.77
2017-10-27T10:30:35.475Z,14.96
2017-10-27T10:33:02.868Z,15.09
2017-10-27T10:35:30.390Z,15.05
2017-10-27T10:37:57.831Z,14.99
2017-10-27T10:40:25.379Z,14.97
2017-10-27T10:42:52.784Z,14.95
2017-10-27T10:45:20.301Z,15.17
2017-10-27T10:47:47.723Z,15.15
2017-10-27T10:50:15.124Z,15.19
2017-10-27T10:52:42.551Z,15.10
2017-10-27T10:55:10.029Z,15.18
2017-10-27T10:57:37.428Z,15.16
2017-10-27T11:00:04.850Z,15.15
2017-10-27T11:02:32.332Z,15.00
2017-10-27T11:04:59.746Z,15.03
2017-10-27T11:07:27.140Z,15.01
2017-10-27T11:09:54.638Z,15.00
2017-10-27T11:12:22.064Z,14.93
2017-10-27T11:14:49.578Z,14.80
2017-10-27T11:17:16.999Z,14.87
2017-10-27T11:19:44.419Z,14.98
2017-10-27T11:22:11.832Z,15.04
2017-10-27T11:24:39.280Z,15.07
2017-10-27T11:27:06.676Z,15.07
2017-10-27T11:29:34.115Z,15.18
2017-10-27T11:32:01.554Z,15.33
2017-10-27T11:34:28.982Z,15.22
2017-10-27T11:36:56.407Z,15.64
2017-10-27T11:39:24.084Z,15.78
2017-10-27T11:41:51.584Z,15.97
2017-10-27T11:44:19.014Z,15.91
2017-10-27T11:46:47.176Z,15.84
2017-10-27T11:49:14.664Z,15.90
2017-10-27T11:51:42.083Z,15.91
2017-10-27T11:54:09.519Z,15.94
2017-10-27T11:56:36.953Z,16.01
2017-10-27T11:59:04.384Z,16.15
2017-10-27T12:01:32.043Z,16.42
2017-10-27T12:03:59.460Z,16.19
2017-10-27T12:06:26.892Z,16.36
2017-10-27T12:08:54.289Z,16.33
2017-10-27T12:11:21.723Z,16.33
2017-10-27T12:13:49.124Z,16.02
2017-10-27T12:16:16.536Z,15.97
2017-10-27T12:18:43.943Z,16.02
2017-10-27T12:21:11.368Z,15.93
2017-10-27T12:23:39.355Z,15.99
2017-10-27T12:26:06.792Z,15.84
2017-10-27T12:28:34.200Z,16.03
2017-10-27T12:31:01.645Z,16.38
2017-10-27T12:33:29.087Z,16.22
2017-10-27T12:35:56.492Z,16.26
2017-10-27T12:38:23.931Z,16.42
2017-10-27T12:40:51.324Z,16.65
2017-10-27T12:43:18.755Z,16.86
2017-10-27T12:45:46.190Z,17.13
2017-10-27T12:48:13.611Z,17.11
2017-10-27T12:50:41.030Z,17.27
2017-10-27T12:53:08.484Z,17.65
2017-10-27T12:55:35.959Z,17.41
2017-10-27T12:58:03.445Z,17.14
2017-10-27T13:00:30.853Z,16.67
2017-10-27T13:02:58.257Z,16.63
2017-10-27T13:05:25.731Z,16.73
2017-10-27T13:07:53.130Z,16.77
2017-10-27T13:10:20.592Z,16.67
2017-10-27T13:12:48.036Z,16.51
2017-10-27T13:15:15.487Z,16.59
2017-10-27T13:17:43.583Z,16.67
2017-10-27T13:20:11.038Z,16.65
2017-10-27T13:22:38.479Z,16.60
2017-10-27T13:25:05.918Z,16.44
2017-10-27T13:27:33.346Z,16.67
2017-10-27T13:30:00.745Z,17.02
2017-10-27T13:32:28.213Z,16.77
2017-10-27T13:34:55.613Z,16.53
2017-10-27T13:37:23.053Z,16.53
2017-10-27T13:39:51.544Z,16.52
2017-10-27T13:42:19.512Z,16.59
2017-10-27T13:44:46.939Z,16.47
2017-10-27T13:47:14.383Z,16.43
2017-10-27T13:49:41.809Z,16.25
2017-10-27T13:52:09.256Z,16.08
2017-10-27T13:54:36.725Z,16.03
2017-10-27T13:57:04.172Z,16.05
2017-10-27T13:59:31.627Z,16.05
2017-10-27T14:01:59.041Z,15.95
2017-10-27T14:04:26.524Z,16.06
2017-10-27T14:06:53.947Z,16.15
2017-10-27T14:09:21.386Z,15.91
2017-10-27T14:11:48.793Z,15.86
2017-10-27T14:14:16.229Z,15.84
2017-10-27T14:16:43.633Z,15.82
2017-10-27T14:19:11.095Z,15.78
2017-10-27T14:21:38.515Z,15.82
2017-10-27T14:24:06.022Z,15.86
2017-10-27T14:26:33.424Z,15.84
2017-10-27T14:29:00.840Z,15.87
2017-10-27T14:31:28.248Z,15.87
2017-10-27T14:33:55.695Z,16.02
2017-10-27T14:36:23.108Z,16.05
2017-10-27T14:38:51.115Z,15.99
2017-10-27T14:41:18.541Z,15.92
2017-10-27T14:43:45.936Z,15.78
2017-10-27T14:46:13.400Z,15.77
2017-10-27T14:48:40.794Z,15.62
2017-10-27T14:51:08.272Z,15.58
2017-10-27T14:53:35.769Z,15.70
2017-10-27T14:56:03.200Z,15.77
2017-10-27T14:58:30.608Z,15.74
2017-10-27T15:00:58.077Z,15.78
2017-10-27T15:03:25.500Z,15.93
2017-10-27T15:05:52.927Z,15.90
2017-10-27T15:08:20.400Z,15.92
2017-10-27T15:10:47.803Z,15.84
2017-10-27T15:13:15.260Z,15.78
2017-10-27T15:15:42.693Z,15.64
2017-10-27T15:18:10.151Z,15.60
2017-10-27T15:20:37.548Z,15.61
2017-10-27T15:23:05.013Z,15.69
2017-10-27T15:25:32.424Z,15.68
2017-10-27T15:27:59.821Z,15.74
2017-10-27T15:30:27.252Z,15.74
2017-10-27T15:32:54.679Z,15.73
2017-10-27T15:35:22.108Z,15.67
2017-10-27T15:37:49.527Z,15.69
2017-10-27T15:40:16.967Z,15.62
2017-10-27T15:42:44.355Z,15.61
2017-10-27T15:45:11.776Z,15.59
2017-10-27T15:47:39.176Z,15.54
2017-10-27T15:50:06.829Z,15.43
2017-10-27T15:52:34.324Z,15.43
2017-10-27T15:55:01.786Z,15.40
2017-10-27T15:57:29.199Z,15.34
2017-10-27T15:59:56.591Z,15.37
2017-10-27T16:02:24.040Z,15.32
2017-10-27T16:04:51.481Z,15.31
2017-10-27T16:07:18.932Z,15.31
2017-10-27T16:09:46.397Z,15.34
2017-10-27T16:12:13.819Z,15.39
2017-10-27T16:14:41.931Z,15.41
2017-10-27T16:17:09.430Z,15.40
2017-10-27T16:19:36.836Z,15.40
2017-10-27T16:22:04.272Z,15.38
2017-10-27T16:24:31.733Z,15.36
2017-10-27T16:26:59.135Z,15.30
2017-10-27T16:29:26.553Z,15.20
2017-10-27T16:31:53.996Z,15.10
2017-10-27T16:34:21.438Z,15.07
2017-10-27T16:36:48.832Z,15.10
2017-10-27T16:39:16.258Z,15.04
2017-10-27T16:41:43.707Z,15.10
2017-10-27T16:44:11.168Z,15.10
2017-10-27T16:46:38.576Z,15.11
2017-10-27T16:49:06.032Z,15.14
2017-10-27T16:51:33.460Z,15.09
2017-10-27T16:54:00.919Z,15.16
2017-10-27T16:56:28.360Z,14.75
2017-10-27T16:58:55.811Z,15.05
2017-10-27T17:01:23.333Z,15.04
2017-10-27T17:03:50.824Z,15.10
2017-10-27T17:06:18.335Z,15.00
2017-10-27T17:08:45.812Z,14.96
2017-10-27T17:11:13.328Z,14.98
2017-10-27T17:13:40.767Z,14.88
2017-10-27T17:16:08.215Z,14.84
2017-10-27T17:18:35.637Z,14.77
2017-10-27T17:21:03.094Z,14.77
2017-10-27T17:23:31.747Z,14.80
2017-10-27T17:25:59.180Z,14.82
2017-10-27T17:28:26.636Z,14.79
2017-10-27T17:30:54.078Z,14.75
2017-10-27T17:33:21.606Z,14.64
2017-10-27T17:35:49.008Z,14.42
2017-10-27T17:38:16.477Z,14.40
2017-10-27T17:40:43.887Z,14.37
2017-10-27T17:43:11.321Z,14.39
2017-10-27T17:45:38.778Z,14.27
2017-10-27T17:48:06.212Z,14.24
2017-10-27T17:50:33.647Z,14.30
2017-10-27T17:53:01.035Z,14.26
2017-10-27T17:55:28.469Z,14.24
2017-10-27T17:57:55.962Z,14.18
2017-10-27T18:00:23.404Z,14.14
2017-10-27T18:02:50.832Z,13.93
2017-10-27T18:05:18.292Z,13.93
2017-10-27T18:07:45.687Z,14.06
2017-10-27T18:10:13.116Z,14.11
2017-10-27T18:12:40.554Z,13.87
2017-10-27T18:15:07.992Z,13.75
2017-10-27T18:17:35.448Z,13.67
2017-10-27T18:20:02.904Z,13.62
2017-10-27T18:22:30.346Z,13.61
2017-10-27T18:24:57.768Z,13.68
2017-10-27T18:27:25.196Z,13.61
2017-10-27T18:29:52.650Z,13.59
2017-10-27T18:32:20.094Z,13.61
2017-10-27T18:34:47.516Z,13.49
2017-10-27T18:37:14.935Z,13.49
2017-10-27T18:39:42.336Z,13.43
2017-10-27T18:42:09.770Z,13.44
2017-10-27T18:44:37.324Z,13.52
2017-10-27T18:47:04.747Z,13.52
2017-10-27T18:49:32.189Z,13.52
2017-10-27T18:51:59.605Z,13.50
2017-10-27T18:54:27.425Z,13.34
2017-10-27T18:56:54.850Z,13.29
2017-10-27T18:59:22.321Z,13.26
2017-10-27T19:01:49.783Z,13.35
2017-10-27T19:04:17.216Z,13.11
2017-10-27T19:06:44.624Z,12.89
2017-10-27T19:09:12.048Z,12.82
2017-10-27T19:11:39.460Z,12.90
2017-10-27T19:14:06.916Z,12.94
2017-10-27T19:16:34.335Z,12.90
2017-10-27T19:19:01.748Z,12.81
2017-10-27T19:21:29.195Z,12.75
2017-10-27T19:23:56.587Z,12.58
2017-10-27T19:26:24.034Z,12.67
2017-10-27T19:28:51.440Z,12.62
2017-10-27T19:31:18.892Z,12.68
2017-10-27T19:33:46.311Z,12.57
2017-10-27T19:36:13.757Z,12.60
2017-10-27T19:38:41.196Z,12.58
2017-10-27T19:41:08.585Z,12.61
2017-10-27T19:43:36.036Z,12.67
2017-10-27T19:46:03.462Z,12.72
2017-10-27T19:48:30.900Z,12.58
2017-10-27T19:50:58.296Z,12.62
2017-10-27T19:53:25.714Z,12.47
2017-10-27T19:55:53.120Z,12.31
2017-10-27T19:58:20.575Z,12.29
2017-10-27T20:00:47.975Z,12.25
2017-10-27T20:03:15.434Z,12.32
2017-10-27T20:05:42.979Z,12.33
2017-10-27T20:08:10.451Z,12.29
2017-10-27T20:10:37.860Z,12.24
2017-10-27T20:13:05.300Z,12.15
2017-10-27T20:15:32.701Z,12.08
2017-10-27T20:18:00.117Z,11.97
2017-10-27T20:20:27.548Z,12.00
2017-10-27T20:22:54.941Z,11.97
2017-10-27T20:25:22.365Z,11.90
2017-10-27T20:27:49.782Z,12.05
2017-10-27T20:30:17.529Z,12.12
2017-10-27T20:32:44.928Z,12.18
2017-10-27T20:35:12.368Z,12.12
2017-10-27T20:37:39.768Z,12.09
2017-10-27T20:40:07.194Z,12.06
2017-10-27T20:42:34.626Z,12.11
2017-10-27T20:45:02.054Z,12.14
2017-10-27T20:47:29.480Z,12.18
2017-10-27T20:49:56.900Z,12.18
2017-10-27T20:52:24.351Z,12.10
2017-10-27T20:54:51.751Z,12.04
2017-10-27T20:57:19.228Z,11.98
2017-10-27T20:59:46.645Z,11.97
2017-10-27T21:02:14.077Z,11.87
2017-10-27T21:04:41.518Z,11.82
2017-10-27T21:07:08.914Z,11.78
2017-10-27T21:09:36.347Z,11.75
2017-10-27T21:12:03.900Z,11.72
2017-10-27T21:14:31.348Z,11.67
2017-10-27T21:16:58.761Z,11.69
2017-10-27T21:19:26.200Z,11.65
2017-10-27T21:21:53.596Z,11.67
2017-10-27T21:24:21.098Z,11.59
2017-10-27T21:26:48.526Z,11.52
2017-10-27T21:29:15.960Z,11.47
2017-10-27T21:31:44.811Z,11.40
2017-10-27T21:34:12.246Z,11.30
2017-10-27T21:36:39.691Z,11.29
2017-10-27T21:39:07.223Z,11.26
2017-10-27T21:41:34.641Z,11.23
2017-10-27T21:44:02.052Z,11.25
2017-10-27T21:46:29.861Z,11.17
2017-10-27T21:48:57.250Z,11.11
2017-10-27T21:51:24.685Z,11.10
2017-10-27T21:53:52.101Z,11.04
2017-10-27T21:56:19.520Z,10.99
2017-10-27T21:58:46.942Z,10.93
2017-10-27T22:01:14.382Z,10.91
2017-10-27T22:03:41.825Z,10.87
2017-10-27T22:06:09.229Z,10.84
2017-10-27T22:08:36.668Z,10.76
2017-10-27T22:11:04.094Z,10.70
2017-10-27T22:13:31.539Z,10.67
2017-10-27T22:15:58.962Z,10.59
2017-10-27T22:18:26.387Z,10.55
2017-10-27T22:20:53.796Z,10.46
2017-10-27T22:23:21.222Z,10.46
2017-10-27T22:25:48.624Z,10.50
2017-10-27T22:28:16.088Z,10.32
2017-10-27T22:30:43.481Z,10.22
2017-10-27T22:33:10.909Z,10.11
2017-10-27T22:35:38.316Z,10.16
2017-10-27T22:38:05.752Z,10.15
2017-10-27T22:40:33.152Z,10.16
2017-10-27T22:43:00.584Z,10.20
2017-10-27T22:45:28.037Z,10.08
2017-10-27T22:47:55.461Z,9.97
2017-10-27T22:50:22.896Z,10.01
2017-10-27T22:52:50.308Z,9.99
2017-10-27T22:55:17.763Z,10.07
2017-10-27T22:57:45.168Z,10.08
2017-10-27T23:00:12.835Z,10.06
2017-10-27T23:02:40.242Z,10.03
2017-10-27T23:05:07.659Z,10.08
2017-10-27T23:10:42.147Z,10.13
2017-10-27T23:13:09.594Z,10.13
2017-10-27T23:15:36.999Z,10.01
2017-10-27T23:18:04.431Z,9.83
2017-10-27T23:20:31.843Z,9.65
2017-10-27T23:22:59.319Z,9.72
2017-10-27T23:25:26.720Z,9.83
2017-10-27T23:27:54.160Z,9.83
2017-10-27T23:30:21.566Z,9.82
2017-10-27T23:32:48.974Z,9.82
2017-10-27T23:35:16.404Z,9.78
2017-10-27T23:37:43.789Z,9.55
2017-10-27T23:40:11.243Z,9.41
2017-10-27T23:42:38.630Z,9.45
2017-10-27T23:45:06.047Z,9.52
2017-10-27T23:47:33.438Z,9.49
2017-10-27T23:50:00.855Z,9.49
2017-10-27T23:52:28.280Z,9.34
2017-10-27T23:54:55.716Z,9.41
2017-10-27T23:57:23.111Z,9.39
2017-10-27T23:59:50.533Z,9.31
